Time;durP1;ratioP1;P1;durP2;ratioP2;P2;SDS_P1;SDS_P2;PMS_P1;PMS_P2;Temp;Humidity;BMP_temperature;BMP_pressure;BME280_temperature;BME280_humidity;BME280_pressure;Samples;Min_cycle;Max_cycle;Signal;HPM_P1;HPM_P2
2022/05/22 00:00:29;;;;;;;21.08;6.97;;;;;;;10.32;100.00;102140.44;7377436;19;20018;-75
2022/05/22 00:02:59;;;;;;;14.95;6.90;;;;;;;10.28;100.00;102136.81;7376016;19;20015;-74
2022/05/22 00:05:29;;;;;;;12.73;5.45;;;;;;;10.31;100.00;102122.91;7377979;19;20026;-74
2022/05/22 00:07:59;;;;;;;11.70;5.88;;;;;;;10.34;100.00;102108.16;7375985;19;20014;-74
2022/05/22 00:10:32;;;;;;;17.58;6.72;;;;;;;10.31;100.00;102101.94;7374865;19;20043;-74
2022/05/22 00:13:02;;;;;;;17.42;7.32;;;;;;;10.32;100.00;102103.72;7374942;19;20027;-74
2022/05/22 00:15:32;;;;;;;14.60;5.80;;;;;;;10.28;100.00;102109.69;7376557;19;20291;-74
2022/05/22 00:18:02;;;;;;;14.05;5.88;;;;;;;10.20;100.00;102109.44;7383089;19;20423;-74
2022/05/22 00:20:32;;;;;;;13.27;6.20;;;;;;;10.18;100.00;102102.31;7383897;19;20018;-74
2022/05/22 00:23:02;;;;;;;14.10;6.03;;;;;;;10.16;100.00;102107.50;7380175;19;20010;-74
2022/05/22 00:25:35;;;;;;;12.55;5.90;;;;;;;10.14;100.00;102099.59;7382939;19;20053;-74
2022/05/22 00:28:05;;;;;;;14.07;6.72;;;;;;;10.11;100.00;102109.06;7382762;19;20014;-74
2022/05/22 00:30:35;;;;;;;14.85;7.75;;;;;;;10.10;100.00;102096.81;7383334;19;20014;-74
2022/05/22 00:33:06;;;;;;;15.82;6.65;;;;;;;10.07;100.00;102108.06;7382124;19;20019;-75
2022/05/22 00:35:37;;;;;;;13.20;6.03;;;;;;;10.06;100.00;102111.53;7384905;19;20046;-75
2022/05/22 00:38:07;;;;;;;13.77;5.90;;;;;;;10.01;100.00;102114.81;7382602;19;20018;-75
2022/05/22 00:40:40;;;;;;;13.50;6.80;;;;;;;10.01;100.00;102112.19;7380978;19;20011;-75
2022/05/22 00:43:26;;;;;;;13.77;6.18;;;;;;;9.97;100.00;102105.97;7379771;19;20503;-74
2022/05/22 00:46:00;;;;;;;10.02;6.07;;;;;;;9.97;100.00;102116.44;7381424;19;20010;-75
2022/05/22 00:48:31;;;;;;;13.52;6.38;;;;;;;9.97;100.00;102111.19;7382945;19;20006;-75
2022/05/22 00:51:07;;;;;;;14.35;6.65;;;;;;;9.95;100.00;102114.59;7384513;19;20040;-75
2022/05/22 00:53:41;;;;;;;9.98;5.90;;;;;;;9.90;100.00;102106.56;7381556;19;20010;-75
2022/05/22 00:56:20;;;;;;;13.45;6.20;;;;;;;9.90;100.00;102096.09;7382630;19;20557;-75
2022/05/22 00:58:53;;;;;;;12.55;6.22;;;;;;;9.89;100.00;102091.69;7380660;19;20097;-75
2022/05/22 01:01:23;;;;;;;11.23;5.93;;;;;;;9.88;100.00;102092.53;7381657;19;19999;-75
2022/05/22 01:03:56;;;;;;;11.07;6.10;;;;;;;9.81;100.00;102086.16;7379951;19;20015;-75
2022/05/22 01:06:27;;;;;;;17.83;6.70;;;;;;;9.77;100.00;102093.88;7381810;19;20257;-75
2022/05/22 01:08:56;;;;;;;11.63;5.63;;;;;;;9.75;100.00;102098.16;7384352;19;20558;-74
2022/05/22 01:11:32;;;;;;;12.18;6.22;;;;;;;9.71;100.00;102099.78;7382540;19;20019;-75
2022/05/22 01:14:06;;;;;;;15.05;6.28;;;;;;;9.68;100.00;102109.25;7383582;19;20032;-74
2022/05/22 01:16:37;;;;;;;15.60;5.70;;;;;;;9.64;100.00;102102.09;7381113;19;20477;-74
2022/05/22 01:19:15;;;;;;;12.38;5.60;;;;;;;9.63;100.00;102110.78;7381289;19;20019;-75
2022/05/22 01:21:55;;;;;;;14.38;6.68;;;;;;;9.62;100.00;102109.91;7381785;19;20274;-74
2022/05/22 01:24:25;;;;;;;12.48;6.63;;;;;;;9.62;100.00;102103.78;7380516;19;20023;-75
2022/05/22 01:26:57;;;;;;;12.13;6.60;;;;;;;9.65;100.00;102093.41;7380834;19;20045;-75
2022/05/22 01:29:27;;;;;;;14.25;5.72;;;;;;;9.63;100.00;102082.88;7380296;19;20035;-74
2022/05/22 01:31:57;;;;;;;14.48;6.57;;;;;;;9.63;100.00;102081.97;7380994;19;20086;-73
2022/05/22 01:34:27;;;;;;;17.85;7.20;;;;;;;9.61;100.00;102081.03;7382135;19;20034;-73
2022/05/22 01:37:02;;;;;;;15.82;5.72;;;;;;;9.59;100.00;102072.22;7382616;19;20535;-74
2022/05/22 01:39:32;;;;;;;14.75;6.55;;;;;;;9.56;100.00;102069.50;7382829;19;20035;-73
2022/05/22 01:42:02;;;;;;;13.90;6.38;;;;;;;9.55;100.00;102067.72;7383106;19;20553;-73
2022/05/22 01:44:32;;;;;;;16.27;6.18;;;;;;;9.51;100.00;102064.09;7379524;19;20593;-73
2022/05/22 01:47:02;;;;;;;13.95;6.43;;;;;;;9.50;100.00;102060.59;7383396;19;20049;-73
2022/05/22 01:49:32;;;;;;;15.60;6.70;;;;;;;9.46;100.00;102055.16;7383989;19;20476;-73
2022/05/22 01:52:05;;;;;;;14.25;6.22;;;;;;;9.48;100.00;102049.16;7384040;19;20447;-72
2022/05/22 01:54:35;;;;;;;12.18;7.28;;;;;;;9.47;100.00;102052.63;7380997;19;20015;-72
2022/05/22 01:57:06;;;;;;;13.77;6.30;;;;;;;9.47;100.00;102047.38;7383750;19;20018;-72
2022/05/22 01:59:36;;;;;;;13.15;6.00;;;;;;;9.48;100.00;102043.03;7379048;19;20043;-72
2022/05/22 02:02:06;;;;;;;14.98;6.20;;;;;;;9.44;100.00;102042.03;7383589;19;20063;-74
2022/05/22 02:04:36;;;;;;;15.07;7.10;;;;;;;9.39;100.00;102038.34;7378685;19;20011;-75
2022/05/22 02:09:51;;;;;;;13.90;6.22;;;;;;;9.36;100.00;102043.47;7381724;19;20014;-74
2022/05/22 02:12:21;;;;;;;12.00;5.80;;;;;;;9.34;100.00;102045.16;7383129;19;20022;-72
2022/05/22 02:14:51;;;;;;;16.08;6.68;;;;;;;9.30;100.00;102032.81;7382650;19;20014;-73
2022/05/22 02:17:21;;;;;;;17.23;6.68;;;;;;;9.28;100.00;102034.47;7380349;19;20023;-72
2022/05/22 02:19:51;;;;;;;15.98;6.97;;;;;;;9.32;100.00;102036.38;7383549;19;20031;-72
2022/05/22 02:22:24;;;;;;;13.27;5.65;;;;;;;9.31;100.00;102029.34;7380289;19;20091;-72
2022/05/22 02:24:55;;;;;;;15.82;6.65;;;;;;;9.30;100.00;102027.56;7379099;19;20511;-72
2022/05/22 02:27:25;;;;;;;16.10;6.40;;;;;;;9.26;100.00;102030.00;7379803;19;20040;-72
2022/05/22 02:29:55;;;;;;;12.73;5.60;;;;;;;9.28;100.00;102030.97;7380073;19;20011;-73
2022/05/22 02:32:25;;;;;;;12.18;5.88;;;;;;;9.27;100.00;102014.34;7378424;19;20026;-74
2022/05/22 02:34:55;;;;;;;13.57;6.55;;;;;;;9.27;100.00;102006.50;7379925;19;20017;-73
2022/05/22 02:37:27;;;;;;;15.82;6.95;;;;;;;9.25;100.00;102002.94;7380311;19;20011;-73
2022/05/22 02:40:00;;;;;;;15.98;7.38;;;;;;;9.22;100.00;102012.41;7381340;19;20018;-73
2022/05/22 02:42:30;;;;;;;16.83;6.05;;;;;;;9.17;100.00;102004.38;7381437;19;20070;-75
2022/05/22 02:45:00;;;;;;;13.55;6.88;;;;;;;9.16;100.00;102007.84;7383997;19;20015;-74
2022/05/22 02:47:33;;;;;;;12.48;6.68;;;;;;;9.12;100.00;102003.31;7379146;19;20013;-75
2022/05/22 02:50:03;;;;;;;13.23;6.07;;;;;;;9.08;100.00;102006.66;7377623;19;20002;-75
2022/05/22 02:52:36;;;;;;;16.08;6.97;;;;;;;9.08;100.00;102009.28;7378645;19;20014;-75
2022/05/22 02:55:08;;;;;;;11.95;6.43;;;;;;;9.07;100.00;102007.47;7378972;19;20035;-75
2022/05/22 02:57:40;;;;;;;12.35;6.57;;;;;;;9.06;100.00;102010.94;7379050;19;20014;-74
2022/05/22 03:00:13;;;;;;;15.32;7.55;;;;;;;9.01;100.00;102008.16;7379995;19;20022;-73
2022/05/22 03:02:43;;;;;;;12.57;6.70;;;;;;;9.01;100.00;102010.75;7378064;19;20014;-73
2022/05/22 03:05:15;;;;;;;16.45;7.25;;;;;;;9.02;100.00;102011.66;7376603;19;20014;-72
2022/05/22 03:07:51;;;;;;;16.35;6.90;;;;;;;9.01;100.00;102009.88;7379989;19;20010;-73
2022/05/22 03:10:22;;;;;;;19.95;7.22;;;;;;;9.01;100.00;102008.16;7379173;19;20030;-73
2022/05/22 03:12:52;;;;;;;14.95;7.50;;;;;;;9.00;100.00;102003.75;7376571;19;20022;-73
2022/05/22 03:15:22;;;;;;;15.27;7.03;;;;;;;9.02;100.00;101993.34;7375613;19;20011;-73
2022/05/22 03:17:52;;;;;;;12.23;6.05;;;;;;;9.01;100.00;101995.06;7377610;19;20019;-72
2022/05/22 03:20:22;;;;;;;16.73;6.93;;;;;;;9.00;100.00;101990.66;7377484;19;20040;-72
2022/05/22 03:22:57;;;;;;;15.20;6.82;;;;;;;8.99;100.00;101990.59;7376582;19;20014;-73
2022/05/22 03:25:27;;;;;;;13.27;6.65;;;;;;;8.95;100.00;101993.94;7374626;19;20015;-75
2022/05/22 03:27:57;;;;;;;17.40;6.82;;;;;;;8.89;100.00;101983.22;7378222;19;20530;-75
2022/05/22 03:30:28;;;;;;;18.17;6.50;;;;;;;8.88;100.00;101984.97;7377229;19;20011;-76
2022/05/22 03:32:58;;;;;;;14.73;7.03;;;;;;;8.85;100.00;101983.13;7375913;19;20095;-74
2022/05/22 03:35:28;;;;;;;14.98;7.68;;;;;;;8.84;100.00;101978.72;7376971;19;20026;-75
2022/05/22 03:38:01;;;;;;;15.82;7.32;;;;;;;8.87;100.00;101972.72;7375596;19;20078;-75
2022/05/22 03:40:31;;;;;;;13.80;6.60;;;;;;;8.87;100.00;101971.81;7376593;19;20010;-73
2022/05/22 03:43:00;;;;;;;12.55;6.13;;;;;;;8.90;100.00;101971.94;7377403;19;20018;-73
2022/05/22 03:45:30;;;;;;;15.35;7.13;;;;;;;8.93;100.00;101979.91;7374883;19;20018;-73
2022/05/22 03:48:00;;;;;;;13.77;6.05;;;;;;;8.97;100.00;101973.94;7378672;19;20027;-73
2022/05/22 03:50:30;;;;;;;19.20;6.80;;;;;;;9.00;100.00;101968.84;7376309;19;20022;-72
2022/05/22 03:53:03;;;;;;;13.07;6.43;;;;;;;9.02;100.00;101965.44;7382827;19;20444;-73
2022/05/22 03:55:33;;;;;;;15.27;6.85;;;;;;;9.07;100.00;101960.38;7383123;19;20600;-73
2022/05/22 03:58:03;;;;;;;13.20;7.25;;;;;;;9.06;100.00;101963.84;7385404;19;20018;-75
2022/05/22 04:00:33;;;;;;;13.95;6.82;;;;;;;9.09;100.00;101970.06;7382037;19;20097;-72
2022/05/22 04:03:03;;;;;;;16.75;6.57;;;;;;;9.12;100.00;101962.34;7383682;19;20015;-71
2022/05/22 04:05:33;;;;;;;13.48;6.45;;;;;;;9.17;100.00;101967.75;7381831;19;20015;-72
2022/05/22 04:08:06;;;;;;;15.00;7.07;;;;;;;9.20;100.00;101959.09;7383937;19;20099;-72
2022/05/22 04:10:38;;;;;;;19.05;7.63;;;;;;;9.24;100.00;101950.53;7382264;19;20496;-74
2022/05/22 04:13:08;;;;;;;15.85;6.38;;;;;;;9.29;100.00;101956.81;7384918;19;20027;-74
2022/05/22 04:15:38;;;;;;;17.30;8.23;;;;;;;9.34;100.00;101955.25;7382607;19;20011;-74
2022/05/22 04:18:08;;;;;;;15.65;7.32;;;;;;;9.40;100.00;101958.06;7383793;19;20011;-74
2022/05/22 04:20:38;;;;;;;23.00;7.10;;;;;;;9.46;100.00;101959.19;7381387;19;20043;-74
2022/05/22 04:25:59;;;;;;;12.50;6.40;;;;;;;9.52;100.00;101951.53;7380746;19;20380;-74
2022/05/22 04:28:31;;;;;;;12.90;6.40;;;;;;;9.57;100.00;101949.09;7382527;19;20022;-74
2022/05/22 04:31:03;;;;;;;13.10;5.68;;;;;;;9.62;100.00;101952.75;7383176;19;20774;-74
2022/05/22 04:33:34;;;;;;;18.52;6.10;;;;;;;9.65;100.00;101950.25;7381160;19;20700;-74
2022/05/22 04:36:04;;;;;;;11.05;5.22;;;;;;;9.68;100.00;101949.44;7382393;19;20095;-72
2022/05/22 04:38:36;;;;;;;13.50;5.63;;;;;;;9.72;100.00;101943.47;7383164;19;20121;-72
2022/05/22 04:41:06;;;;;;;14.98;5.32;;;;;;;9.74;100.00;101947.94;7384533;19;20015;-72
2022/05/22 04:43:36;;;;;;;11.82;5.30;;;;;;;9.82;100.00;101950.81;7383862;19;20766;-72
2022/05/22 04:46:09;;;;;;;15.93;7.07;;;;;;;9.90;100.00;101951.97;7379803;19;20036;-72
2022/05/22 04:48:39;;;;;;;13.85;6.55;;;;;;;10.00;100.00;101948.81;7378111;19;20018;-72
2022/05/22 04:51:09;;;;;;;14.63;6.40;;;;;;;10.12;100.00;101946.59;7382873;19;20488;-72
2022/05/22 04:53:41;;;;;;;14.80;6.93;;;;;;;10.30;100.00;101940.19;7379530;19;20018;-72
2022/05/22 04:56:12;;;;;;;18.42;7.88;;;;;;;10.46;100.00;101938.06;7380866;19;20010;-72
2022/05/22 04:58:42;;;;;;;15.30;6.97;;;;;;;10.64;100.00;101940.38;7381749;19;20003;-72
2022/05/22 05:01:13;;;;;;;19.30;6.95;;;;;;;10.82;100.00;101926.91;7383769;19;20021;-72
2022/05/22 05:03:43;;;;;;;17.30;7.65;;;;;;;11.02;100.00;101932.75;7380094;19;20089;-72
2022/05/22 05:06:13;;;;;;;12.95;6.35;;;;;;;11.28;100.00;101931.75;7379840;19;20312;-72
2022/05/22 05:08:46;;;;;;;17.25;6.95;;;;;;;11.44;100.00;101931.28;7381267;19;20088;-72
2022/05/22 05:11:16;;;;;;;18.30;7.40;;;;;;;11.65;100.00;101930.09;7380116;19;20010;-72
2022/05/22 05:13:46;;;;;;;13.68;6.57;;;;;;;11.88;100.00;101936.84;7380424;19;20115;-72
2022/05/22 05:16:16;;;;;;;14.75;7.03;;;;;;;12.06;100.00;101939.94;7379881;19;20040;-73
2022/05/22 05:18:46;;;;;;;17.05;7.28;;;;;;;12.29;100.00;101931.72;7379819;19;20015;-72
2022/05/22 05:21:20;;;;;;;20.10;6.85;;;;;;;12.53;100.00;101937.53;7381944;19;20011;-72
2022/05/22 05:23:55;;;;;;;14.20;6.32;;;;;;;12.80;100.00;101941.63;7380499;19;20411;-73
2022/05/22 05:26:26;;;;;;;12.40;6.13;;;;;;;13.05;100.00;101954.47;7380439;19;20050;-73
2022/05/22 05:28:56;;;;;;;19.73;6.65;;;;;;;13.32;100.00;101949.78;7383055;19;20065;-72
2022/05/22 05:31:26;;;;;;;15.45;6.95;;;;;;;13.51;100.00;101955.41;7379746;19;20014;-72
2022/05/22 05:33:56;;;;;;;15.15;6.65;;;;;;;13.69;100.00;101946.06;7381096;19;20010;-73
2022/05/22 05:36:26;;;;;;;15.75;6.38;;;;;;;13.92;100.00;101949.09;7380467;19;20492;-73
2022/05/22 05:38:59;;;;;;;16.92;6.82;;;;;;;14.03;98.45;101950.19;7379938;19;20659;-73
2022/05/22 05:41:29;;;;;;;13.07;5.72;;;;;;;14.15;96.86;101951.25;7379818;19;20021;-73
2022/05/22 05:44:01;;;;;;;16.25;6.38;;;;;;;14.46;96.25;101952.66;7379497;19;20044;-73
2022/05/22 05:46:31;;;;;;;10.73;5.55;;;;;;;14.40;94.38;101951.66;7380012;19;20458;-73
2022/05/22 05:49:01;;;;;;;19.83;6.05;;;;;;;14.76;93.71;101941.59;7381452;19;20078;-73
2022/05/22 05:51:31;;;;;;;14.18;6.65;;;;;;;15.01;91.69;101943.72;7380625;19;20017;-73
2022/05/22 05:54:04;;;;;;;13.65;5.38;;;;;;;15.26;92.05;101940.50;7377952;19;20045;-73
2022/05/22 05:56:34;;;;;;;14.30;5.78;;;;;;;15.44;92.17;101952.16;7379102;19;20090;-73
2022/05/22 05:59:03;;;;;;;15.13;6.03;;;;;;;15.62;90.53;101942.66;7377929;19;20022;-73
2022/05/22 06:01:34;;;;;;;14.02;6.65;;;;;;;15.86;88.06;101938.47;7378542;19;20010;-73
2022/05/22 06:04:04;;;;;;;16.65;6.78;;;;;;;15.66;87.30;101940.91;7377934;19;20463;-73
2022/05/22 06:06:34;;;;;;;18.92;6.53;;;;;;;16.03;86.07;101924.50;7377086;19;20024;-73
2022/05/22 06:09:07;;;;;;;13.57;6.75;;;;;;;16.09;85.48;101928.06;7378918;19;20014;-72
2022/05/22 06:11:37;;;;;;;13.95;7.45;;;;;;;16.16;83.37;101929.91;7377952;19;20531;-74
2022/05/22 06:14:08;;;;;;;15.23;6.95;;;;;;;16.23;83.17;101931.72;7374534;19;20025;-74
2022/05/22 06:16:38;;;;;;;14.20;6.05;;;;;;;16.35;80.13;101923.88;7378764;19;20014;-73
2022/05/22 06:19:08;;;;;;;12.60;5.40;;;;;;;16.49;81.40;101927.50;7377906;19;20022;-73
2022/05/22 06:21:38;;;;;;;15.80;6.18;;;;;;;16.48;79.57;101920.41;7378563;19;20840;-73
2022/05/22 06:24:11;;;;;;;16.88;5.60;;;;;;;16.96;78.93;101926.84;7380658;19;20491;-73
2022/05/22 06:26:41;;;;;;;12.40;5.35;;;;;;;17.18;77.99;101931.38;7376235;19;20019;-72
2022/05/22 06:29:14;;;;;;;13.75;5.43;;;;;;;17.41;77.46;101933.19;7378637;19;20025;-73
2022/05/22 06:31:44;;;;;;;11.43;5.00;;;;;;;17.60;77.01;101935.91;7377981;19;20232;-73
2022/05/22 06:34:14;;;;;;;13.35;5.18;;;;;;;17.27;75.31;101936.69;7377013;19;20517;-75
2022/05/22 06:36:46;;;;;;;13.07;5.05;;;;;;;17.39;74.42;101946.47;7378685;19;20053;-74
2022/05/22 06:42:01;;;;;;;12.32;4.90;;;;;;;17.59;72.91;101931.47;7378430;19;20015;-74
2022/05/22 06:44:32;;;;;;;13.32;5.03;;;;;;;17.92;71.18;101935.06;7375845;19;20113;-74
2022/05/22 06:47:01;;;;;;;14.05;5.25;;;;;;;17.60;70.11;101941.22;7372749;19;20007;-73
2022/05/22 06:49:31;;;;;;;13.77;4.55;;;;;;;17.64;69.76;101931.47;7370717;19;20097;-74
2022/05/22 06:52:01;;;;;;;11.52;4.18;;;;;;;17.78;69.39;101940.34;7380587;19;20019;-74
2022/05/22 06:54:34;;;;;;;7.32;4.15;;;;;;;18.03;67.86;101935.94;7379532;19;20702;-74
2022/05/22 06:57:04;;;;;;;14.13;5.10;;;;;;;18.06;67.49;101937.72;7380075;19;20085;-74
2022/05/22 06:59:33;;;;;;;13.02;4.97;;;;;;;18.14;67.15;101949.22;7378826;19;20023;-74
2022/05/22 07:02:04;;;;;;;11.75;5.28;;;;;;;17.94;67.66;101947.44;7381846;19;20011;-74
2022/05/22 07:04:34;;;;;;;14.40;5.57;;;;;;;17.87;67.33;101948.31;7380991;19;20017;-74
2022/05/22 07:07:04;;;;;;;11.13;4.50;;;;;;;18.28;67.17;101939.47;7377268;19;20042;-74
2022/05/22 07:09:38;;;;;;;15.52;4.88;;;;;;;18.25;65.84;101935.03;7378399;19;20006;-74
2022/05/22 07:12:10;;;;;;;12.68;5.25;;;;;;;18.19;65.43;101928.84;7377210;19;20063;-74
2022/05/22 07:14:40;;;;;;;14.82;6.63;;;;;;;18.60;65.34;101923.47;7378968;19;20510;-73
2022/05/22 07:17:12;;;;;;;16.83;5.68;;;;;;;18.75;64.74;101927.88;7377697;19;20097;-74
2022/05/22 07:19:46;;;;;;;15.52;7.32;;;;;;;18.76;64.11;101919.88;7379002;19;20015;-75
2022/05/22 07:22:16;;;;;;;17.83;6.18;;;;;;;18.66;64.15;101927.94;7376749;19;20022;-74
2022/05/22 07:24:48;;;;;;;11.77;4.72;;;;;;;18.82;62.08;101926.97;7379154;19;20018;-75
2022/05/22 07:27:19;;;;;;;11.50;5.57;;;;;;;19.27;61.92;101934.75;7381932;19;20507;-73
2022/05/22 07:29:49;;;;;;;10.93;5.28;;;;;;;19.51;61.04;101922.19;7385930;19;20037;-73
2022/05/22 07:32:20;;;;;;;14.38;6.10;;;;;;;19.73;60.44;101921.19;7387100;19;20052;-73
2022/05/22 07:34:50;;;;;;;12.63;5.13;;;;;;;19.84;59.37;101913.97;7387148;19;20043;-73
2022/05/22 07:37:23;;;;;;;;;;;;;;;20.01;55.36;101915.59;7386409;19;20038;-76
2022/05/22 07:39:56;;;;;;;10.75;4.60;;;;;;;20.12;55.82;101924.38;7385872;19;19918;-75
2022/05/22 07:42:26;;;;;;;11.52;4.50;;;;;;;20.33;55.66;101910.88;7385024;19;20020;-74
2022/05/22 07:44:56;;;;;;;13.13;3.92;;;;;;;20.51;53.31;101902.72;7382784;19;21214;-73
2022/05/22 07:47:26;;;;;;;8.93;3.45;;;;;;;20.46;52.70;101907.22;7381892;19;20014;-74
2022/05/22 07:52:41;;;;;;;7.95;3.05;;;;;;;20.37;50.22;101907.28;7386848;19;20015;-74
2022/05/22 07:55:18;;;;;;;8.18;3.25;;;;;;;20.56;50.09;101902.66;7383298;19;20383;-74
2022/05/22 07:57:51;;;;;;;8.48;3.30;;;;;;;20.42;50.70;101900.16;7380250;19;20696;-74
2022/05/22 08:00:23;;;;;;;11.07;3.85;;;;;;;20.89;51.05;101896.91;7385989;19;20014;-74
2022/05/22 08:02:53;;;;;;;11.35;4.18;;;;;;;20.90;50.50;101892.47;7383856;19;20022;-75
2022/05/22 08:05:24;;;;;;;7.72;3.47;;;;;;;21.56;50.36;101886.22;7383312;19;20160;-74
2022/05/22 08:07:54;;;;;;;8.38;3.53;;;;;;;21.65;49.31;101881.63;7380708;19;20025;-74
2022/05/22 08:10:27;;;;;;;10.40;4.00;;;;;;;22.33;50.41;101876.88;7384737;19;20023;-74
2022/05/22 08:12:57;;;;;;;10.63;4.20;;;;;;;21.62;49.22;101880.78;7383834;19;20006;-74
2022/05/22 08:15:30;;;;;;;13.93;3.88;;;;;;;21.49;49.39;101878.31;7383437;19;20732;-75
2022/05/22 08:18:00;;;;;;;10.38;4.15;;;;;;;22.12;49.45;101866.59;7383873;19;20022;-75
2022/05/22 08:20:33;;;;;;;9.77;4.22;;;;;;;22.00;49.42;101864.97;7382104;19;20088;-74
2022/05/22 08:23:06;;;;;;;10.30;3.78;;;;;;;22.38;46.71;101864.31;7382792;19;20487;-74
2022/05/22 08:25:39;;;;;;;8.85;4.07;;;;;;;22.24;46.64;101852.13;7382116;19;20006;-73
2022/05/22 08:28:09;;;;;;;10.30;3.67;;;;;;;21.65;45.98;101854.94;7378093;19;20527;-73
2022/05/22 08:30:39;;;;;;;9.75;3.17;;;;;;;21.97;46.26;101850.81;7381742;19;20546;-73
2022/05/22 08:33:10;;;;;;;12.70;3.60;;;;;;;22.23;46.43;101851.25;7381586;19;20014;-73
2022/05/22 08:35:41;;;;;;;7.47;3.30;;;;;;;21.90;45.87;101844.69;7382688;19;20039;-73
2022/05/22 08:38:12;;;;;;;9.98;3.42;;;;;;;22.17;46.16;101846.88;7380503;19;20006;-73
2022/05/22 08:40:49;;;;;;;10.35;3.30;;;;;;;22.68;45.19;101848.56;7380951;19;20090;-75
2022/05/22 08:43:29;;;;;;;12.43;3.72;;;;;;;22.79;43.71;101833.22;7379986;19;20022;-73
2022/05/22 08:46:05;;;;;;;8.93;3.55;;;;;;;23.00;44.00;101835.38;7381907;19;20022;-72
2022/05/22 08:48:41;;;;;;;6.57;3.40;;;;;;;23.20;42.95;101847.44;7379622;19;20483;-73
2022/05/22 08:51:17;;;;;;;11.00;3.10;;;;;;;23.09;44.30;101835.16;7381997;19;20015;-73
2022/05/22 08:53:53;;;;;;;8.45;3.65;;;;;;;23.20;42.75;101828.69;7379638;19;20090;-73
2022/05/22 08:59:14;;;;;;;11.65;4.93;;;;;;;22.91;43.13;101829.34;7380375;19;20015;-72
2022/05/22 09:01:53;;;;;;;8.93;3.53;;;;;;;22.96;43.74;101825.66;7381763;19;20018;-73
2022/05/22 09:04:35;;;;;;;9.90;4.10;;;;;;;22.86;44.06;101832.16;7380153;19;20025;-74
2022/05/22 09:07:22;;;;;;;10.07;3.38;;;;;;;22.82;42.77;101828.69;7379580;19;20015;-72
2022/05/22 09:09:57;;;;;;;11.43;3.47;;;;;;;22.50;42.97;101829.31;7381855;19;20071;-73
2022/05/22 09:12:50;;;;;;;10.50;3.88;;;;;;;22.83;42.81;101811.72;7380648;19;20078;-72
2022/05/22 09:15:26;;;;;;;11.40;3.88;;;;;;;22.46;43.12;101803.56;7380963;19;20433;-72
2022/05/22 09:18:06;;;;;;;11.55;4.07;;;;;;;22.54;43.84;101808.75;7380964;19;20031;-72
2022/05/22 09:20:46;;;;;;;9.90;3.92;;;;;;;21.99;44.24;101807.13;7382101;19;20038;-73
2022/05/22 09:23:43;;;;;;;10.23;3.35;;;;;;;22.16;44.50;101806.84;7382308;19;20698;-72
2022/05/22 09:26:25;;;;;;;9.95;3.40;;;;;;;22.32;44.28;101794.06;7379210;19;20021;-74
2022/05/22 09:29:06;;;;;;;8.70;3.75;;;;;;;22.71;44.22;101787.00;7377536;19;20035;-73
2022/05/22 09:31:43;;;;;;;10.40;3.67;;;;;;;22.51;43.65;101788.31;7382585;19;20014;-75
2022/05/22 09:34:28;;;;;;;9.57;3.70;;;;;;;22.56;44.37;101787.31;7381055;19;20020;-74
2022/05/22 09:37:12;;;;;;;10.48;3.40;;;;;;;22.80;44.63;101786.81;7381013;19;20019;-74
2022/05/22 09:39:59;;;;;;;12.95;4.07;;;;;;;22.72;42.83;101789.63;7380361;19;20069;-75
2022/05/22 09:42:43;;;;;;;7.68;3.45;;;;;;;22.58;44.37;101777.47;7380188;19;20051;-74
2022/05/22 09:45:34;;;;;;;9.10;3.65;;;;;;;22.34;44.11;101785.09;7379787;19;20019;-73
2022/05/22 09:48:33;;;;;;;8.05;3.60;;;;;;;22.65;43.47;101781.78;7379767;19;20043;-76
2022/05/22 09:51:13;;;;;;;8.40;3.17;;;;;;;22.71;42.93;101778.97;7379047;19;20463;-76
2022/05/22 09:54:11;;;;;;;8.95;3.17;;;;;;;22.58;44.18;101777.47;7376447;19;20014;-74
2022/05/22 09:57:14;;;;;;;9.18;3.60;;;;;;;22.72;43.24;101780.72;7380119;19;20014;-75
2022/05/22 10:00:03;;;;;;;9.10;3.97;;;;;;;23.30;42.94;101779.38;7379215;19;20049;-76
2022/05/22 10:02:43;;;;;;;8.57;3.30;;;;;;;23.12;42.05;101778.91;7380061;19;20090;-75
2022/05/22 10:05:27;;;;;;;8.10;3.47;;;;;;;23.69;42.26;101783.75;7379997;19;20098;-75
2022/05/22 10:08:06;;;;;;;9.52;3.30;;;;;;;23.75;41.16;101780.94;7379238;19;20014;-75
2022/05/22 10:10:45;;;;;;;8.90;3.42;;;;;;;23.56;40.93;101781.44;7378985;19;20126;-73
2022/05/22 10:13:27;;;;;;;8.95;3.28;;;;;;;23.43;41.53;101773.69;7379978;19;20231;-72
2022/05/22 10:16:10;;;;;;;11.88;3.88;;;;;;;22.97;41.01;101768.56;7380087;19;20006;-73
2022/05/22 10:18:54;;;;;;;;;;;;;;;23.14;40.89;101758.34;7380196;19;20014;-72
2022/05/22 10:21:39;;;;;;;12.27;3.75;;;;;;;23.54;40.14;101757.38;7380263;19;20428;-74
2022/05/22 10:24:24;;;;;;;8.73;4.10;;;;;;;23.14;42.17;101749.44;7378548;19;20014;-73
2022/05/22 10:27:08;;;;;;;11.98;4.45;;;;;;;23.21;42.03;101756.41;7378460;19;20010;-73
2022/05/22 10:29:45;;;;;;;8.00;3.60;;;;;;;23.86;41.12;101748.50;7375733;19;20015;-73
2022/05/22 10:32:23;;;;;;;11.82;4.72;;;;;;;23.60;42.29;101751.00;7378248;19;20011;-73
2022/05/22 10:34:58;;;;;;;10.43;3.33;;;;;;;23.89;40.12;101739.50;7378371;19;20021;-73
2022/05/22 10:37:35;;;;;;;11.82;4.18;;;;;;;23.04;41.27;101738.06;7380140;19;20014;-73
2022/05/22 10:40:08;;;;;;;9.82;3.92;;;;;;;23.30;42.64;101742.78;7375791;19;20059;-73
2022/05/22 10:42:49;;;;;;;8.27;3.30;;;;;;;23.28;41.26;101735.72;7379230;19;20053;-73
2022/05/22 10:45:24;;;;;;;9.82;4.07;;;;;;;22.62;42.14;101736.41;7378501;19;20487;-72
2022/05/22 10:47:56;;;;;;;9.48;4.38;;;;;;;23.26;41.53;101740.22;7379182;19;20137;-73
2022/05/22 10:50:29;;;;;;;10.98;4.15;;;;;;;23.70;41.09;101720.38;7378771;19;20374;-74
2022/05/22 10:53:02;;;;;;;;;;;;;;;23.75;39.71;101708.59;7378549;19;20333;-73
2022/05/22 10:55:41;;;;;;;14.45;4.68;;;;;;;23.92;40.78;101705.41;7379371;19;19930;-73
2022/05/22 10:58:26;;;;;;;12.55;4.13;;;;;;;23.30;39.54;101696.41;7379714;19;20053;-73
2022/05/22 11:00:59;;;;;;;12.32;4.03;;;;;;;23.24;41.01;101707.28;7376789;19;20007;-73
2022/05/22 11:03:31;;;;;;;9.73;3.72;;;;;;;23.44;40.24;101707.63;7377777;19;20003;-73
2022/05/22 11:06:03;;;;;;;9.70;3.90;;;;;;;23.37;40.67;101703.38;7378658;19;20105;-73
2022/05/22 11:08:38;;;;;;;8.60;3.35;;;;;;;23.86;39.93;101707.44;7378984;19;20014;-73
2022/05/22 11:11:16;;;;;;;9.77;3.70;;;;;;;23.81;41.23;101704.88;7376397;19;20587;-76
2022/05/22 11:13:47;;;;;;;11.95;3.47;;;;;;;24.12;39.57;101702.19;7376420;19;20014;-76
2022/05/22 11:16:20;;;;;;;8.13;3.70;;;;;;;24.00;41.33;101707.88;7376541;19;20050;-76
2022/05/22 11:19:03;;;;;;;9.57;3.63;;;;;;;24.73;40.72;101695.84;7376075;19;20562;-75
2022/05/22 11:21:39;;;;;;;9.87;3.23;;;;;;;23.77;38.66;101696.06;7378064;19;20021;-76
2022/05/22 11:24:22;;;;;;;14.57;4.00;;;;;;;23.99;40.31;101690.06;7376199;19;20011;-76
2022/05/22 11:27:15;;;;;;;8.52;3.42;;;;;;;24.19;39.28;101681.44;7376371;19;20014;-76
2022/05/22 11:30:00;;;;;;;7.85;3.50;;;;;;;24.69;39.67;101682.59;7375578;19;20535;-76
2022/05/22 11:32:42;;;;;;;7.22;3.40;;;;;;;24.92;38.78;101674.66;7377804;19;20011;-76
2022/05/22 11:35:34;;;;;;;9.93;3.53;;;;;;;24.38;38.05;101664.78;7377251;19;20014;-76
2022/05/22 11:38:18;;;;;;;11.05;4.47;;;;;;;23.91;38.39;101665.31;7375626;19;20025;-76
2022/05/22 11:41:03;;;;;;;7.35;3.15;;;;;;;24.53;38.50;101663.41;7378341;19;20021;-73
2022/05/22 11:43:59;;;;;;;8.30;3.30;;;;;;;24.17;38.08;101661.84;7376111;19;20035;-73
2022/05/22 11:46:44;;;;;;;13.57;3.63;;;;;;;23.56;39.80;101653.78;7376522;19;20785;-75
2022/05/22 11:49:25;;;;;;;12.52;3.85;;;;;;;23.60;40.09;101659.94;7376231;19;20019;-75
2022/05/22 11:52:53;;;;;;;12.15;4.25;;;;;;;23.72;39.81;101646.22;7377386;19;20010;-76
2022/05/22 11:55:18;;;;;;;9.32;4.03;;;;;;;23.88;38.93;101649.31;7377431;19;20018;-76
2022/05/22 11:58:03;;;;;;;8.98;3.65;;;;;;;24.11;38.88;101649.50;7376768;19;20006;-76
2022/05/22 12:00:40;;;;;;;12.52;4.13;;;;;;;24.07;38.47;101634.44;7374645;19;20014;-73
2022/05/22 12:03:56;;;;;;;8.48;3.72;;;;;;;24.17;38.58;101627.00;7375290;19;20054;-76